Time;durP1;ratioP1;P1;durP2;ratioP2;P2;SDS_P1;SDS_P2;PMS_P1;PMS_P2;Temp;Humidity;BMP_temperature;BMP_pressure;BME280_temperature;BME280_humidity;BME280_pressure;Samples;Min_cycle;Max_cycle;Signal;HPM_P1;HPM_P2
2022/05/06 00:00:11;;;;;;;1.00;1.00;;;;;;;;;;5051296;28;20429;-66
2022/05/06 00:02:37;;;;;;;0.90;0.90;;;;;;;;;;5046730;28;20574;-68
2022/05/06 00:05:03;;;;;;;1.67;1.10;;;;;;;;;;5050433;28;20187;-68
2022/05/06 00:07:29;;;;;;;0.97;0.97;;;;;;;;;;5050013;28;20574;-69
2022/05/06 00:09:55;;;;;;;1.10;1.10;;;;;;;;;;5050261;28;20447;-68
2022/05/06 00:12:21;;;;;;;0.70;0.70;;;;;;;;;;5050287;28;21136;-68
2022/05/06 00:14:47;;;;;;;0.90;0.90;;;;;;;;;;5050491;28;20417;-69
2022/05/06 00:17:13;;;;;;;0.80;0.80;;;;;;;;;;5049841;28;20818;-69
2022/05/06 00:19:41;;;;;;;0.97;0.97;;;;;;;;;;5049806;28;20462;-69
2022/05/06 00:22:08;;;;;;;0.70;0.70;;;22.10;55.50;;;;;;5050251;28;20414;-68
2022/05/06 00:24:34;;;;;;;1.10;1.10;;;;;;;;;;5050161;28;20410;-68
2022/05/06 00:27:00;;;;;;;1.17;1.17;;;;;;;;;;5050131;28;20422;-68
2022/05/06 00:29:26;;;;;;;0.85;0.85;;;;;;;;;;5049708;28;20533;-68
2022/05/06 00:31:52;;;;;;;1.00;0.77;;;;;;;;;;5049930;28;20200;-68
2022/05/06 00:34:18;;;;;;;0.90;0.90;;;;;;;;;;5049728;28;20411;-68
2022/05/06 00:36:44;;;;;;;0.80;0.80;;;;;;;;;;5049632;28;20452;-67
2022/05/06 00:39:11;;;;;;;1.13;1.02;;;;;;;;;;5049920;28;20804;-68
2022/05/06 00:41:36;;;;;;;1.17;0.90;;;;;;;;;;5049508;28;20187;-68
2022/05/06 00:44:06;;;;;;;1.43;1.33;;;22.00;57.20;;;;;;5049669;28;20418;-68
2022/05/06 00:46:32;;;;;;;1.00;1.00;;;20.30;56.10;;;;;;5049270;28;20176;-68
2022/05/06 00:48:58;;;;;;;1.10;1.10;;;;;;;;;;5049681;28;20958;-68
2022/05/06 00:51:24;;;;;;;0.80;0.80;;;;;;;;;;5049304;28;20457;-69
2022/05/06 00:53:53;;;;;;;1.30;1.30;;;22.00;57.50;;;;;;5049465;28;20422;-69
2022/05/06 00:56:19;;;;;;;0.90;0.90;;;;;;;;;;5049235;28;20849;-68
2022/05/06 00:58:45;;;;;;;1.03;1.03;;;;;;;;;;5049506;28;20907;-68
2022/05/06 01:01:11;;;;;;;0.90;0.90;;;;;;;;;;5049623;28;20416;-68
2022/05/06 01:03:38;;;;;;;0.90;0.90;;;;;;;;;;5049302;28;20808;-67
2022/05/06 01:06:10;;;;;;;1.03;1.03;;;22.00;64.60;;;;;;5048942;28;20228;-68
2022/05/06 01:08:36;;;;;;;1.00;1.00;;;;;;;;;;5048902;28;21021;-68
2022/05/06 01:11:02;;;;;;;1.10;1.10;;;;;;;;;;5049126;28;20298;-68
2022/05/06 01:13:28;;;;;;;0.70;0.70;;;;;;;;;;5049378;28;20207;-68
2022/05/06 01:15:56;;;;;;;0.90;0.90;;;21.80;64.90;;;;;;5048928;28;20867;-68
2022/05/06 01:18:23;;;;;;;0.80;0.80;;;;;;;;;;5048323;28;20434;-68
2022/05/06 01:20:53;;;;;;;0.90;0.90;;;21.90;53.40;;;;;;5048363;28;20430;-68
2022/05/06 01:23:23;;;;;;;0.73;0.73;;;21.90;57.00;;;;;;5049237;28;20403;-68
2022/05/06 01:25:49;;;;;;;0.90;0.90;;;;;;;;;;5049025;28;20898;-68
2022/05/06 01:28:16;;;;;;;1.20;1.10;;;21.90;56.40;;;;;;5048920;28;20525;-68
2022/05/06 01:30:45;;;;;;;1.00;1.00;;;21.90;56.70;;;;;;5048891;28;20531;-68
2022/05/06 01:33:16;;;;;;;0.87;0.87;;;21.90;56.90;;;;;;5048817;28;20435;-68
2022/05/06 01:35:47;;;;;;;0.80;0.80;;;21.90;56.80;;;;;;5048810;28;20445;-68
2022/05/06 01:38:21;;;;;;;1.00;1.00;;;21.90;53.40;;;;;;5048776;28;20412;-68
2022/05/06 01:40:52;;;;;;;1.00;1.00;;;22.10;56.70;;;;;;5048503;28;20410;-68
2022/05/06 01:43:20;;;;;;;0.90;0.90;;;21.90;56.80;;;;;;5048581;28;20469;-68
2022/05/06 01:45:48;;;;;;;0.93;0.93;;;21.90;56.60;;;;;;5048215;28;20512;-67
2022/05/06 01:48:16;;;;;;;0.93;0.93;;;22.10;70.50;;;;;;5048494;28;20402;-68
2022/05/06 01:50:42;;;;;;;1.53;0.90;;;;;;;;;;5048583;28;20442;-68
2022/05/06 01:53:09;;;;;;;0.63;0.63;;;22.10;61.90;;;;;;5048881;28;20407;-68
2022/05/06 01:55:35;;;;;;;1.03;0.97;;;;;;;;;;5048521;28;20414;-68
2022/05/06 01:58:01;;;;;;;0.80;0.80;;;;;;;;;;5048638;28;20434;-68
2022/05/06 02:00:26;;;;;;;4.23;1.10;;;22.30;60.10;;;;;;5028821;28;20193;-68
2022/05/06 02:02:54;;;;;;;1.10;1.10;;;;;;;;;;5028928;28;20422;-69
2022/05/06 02:05:21;;;;;;;0.90;0.90;;;;;;;;;;5043370;28;20257;-68
2022/05/06 02:07:48;;;;;;;0.67;0.67;;;21.90;64.60;;;;;;5048306;28;20468;-69
2022/05/06 02:10:14;;;;;;;1.15;1.15;;;;;;;;;;5048465;28;20561;-68
2022/05/06 02:12:40;;;;;;;1.37;1.27;;;;;;;;;;5048796;28;20270;-68
2022/05/06 02:15:07;;;;;;;0.97;0.97;;;21.90;56.80;;;;;;5048742;28;20497;-68
2022/05/06 02:17:33;;;;;;;0.80;0.80;;;;;;;;;;5048126;28;20430;-69
2022/05/06 02:19:59;;;;;;;0.93;0.93;;;;;;;;;;5048699;28;20496;-68
2022/05/06 02:22:27;;;;;;;1.10;1.10;;;;;;;;;;5048831;28;20222;-68
2022/05/06 02:24:55;;;;;;;1.07;1.07;;;22.00;76.80;;;;;;5048675;28;20402;-68
2022/05/06 02:27:21;;;;;;;0.80;0.80;;;;;;;;;;5048107;28;20479;-68
2022/05/06 02:35:16;;;;;;;1.00;1.00;;;;;;;;;;5048430;28;20253;-68
2022/05/06 02:37:42;;;;;;;0.80;0.80;;;;;;;;;;5047924;28;20414;-68
2022/05/06 02:40:09;;;;;;;1.20;1.10;;;22.50;57.30;;;;;;5048277;28;20446;-68
2022/05/06 02:42:36;;;;;;;0.77;0.77;;;;;;;;;;5048001;28;20426;-68
2022/05/06 02:45:02;;;;;;;1.00;1.00;;;22.00;58.70;;;;;;5048332;28;20493;-68
2022/05/06 02:47:29;;;;;;;1.10;1.10;;;;;;;;;;5048178;28;20402;-69
2022/05/06 02:49:54;;;;;;;1.03;1.03;;;22.00;75.80;;;;;;5048363;28;20923;-68
2022/05/06 02:52:20;;;;;;;0.90;0.90;;;;;;;;;;5048098;28;20468;-68
2022/05/06 02:54:47;;;;;;;0.80;0.80;;;;;;;;;;5048396;28;20176;-68
2022/05/06 02:57:13;;;;;;;0.90;0.90;;;;;;;;;;5047944;28;20493;-68
2022/05/06 02:59:39;;;;;;;0.83;0.83;;;;;;;;;;5050287;28;20517;-68
2022/05/06 03:02:05;;;;;;;0.90;0.90;;;;;;;;;;5051689;28;20427;-69
2022/05/06 03:04:31;;;;;;;0.93;0.93;;;;;;;;;;5051631;28;20864;-68
2022/05/06 03:06:58;;;;;;;0.70;0.70;;;;;;;;;;5051135;28;20437;-68
2022/05/06 03:09:24;;;;;;;0.83;0.83;;;;;;;;;;5051526;28;20437;-69
2022/05/06 03:11:50;;;;;;;0.93;0.93;;;21.60;67.90;;;;;;5051088;28;20504;-68
2022/05/06 03:14:16;;;;;;;0.83;0.83;;;;;;;;;;5051469;28;20410;-68
2022/05/06 03:16:41;;;;;;;0.83;0.83;;;;;;;;;;5050995;28;20701;-68
2022/05/06 03:19:07;;;;;;;1.27;1.27;;;;;;;;;;5050073;28;21014;-68
2022/05/06 03:21:35;;;;;;;0.90;0.90;;;;;;;;;;5049401;28;20422;-68
2022/05/06 03:24:01;;;;;;;0.93;0.93;;;;;;;;;;5051359;28;20414;-69
2022/05/06 03:26:27;;;;;;;0.90;0.90;;;;;;;;;;5051042;28;20465;-68
2022/05/06 03:28:56;;;;;;;0.93;0.93;;;;;;;;;;5051288;28;20477;-68
2022/05/06 03:31:22;;;;;;;1.00;1.00;;;;;;;;;;5051076;28;20466;-68
2022/05/06 03:33:49;;;;;;;1.00;0.98;;;;;;;;;;5051244;28;20755;-68
2022/05/06 03:36:15;;;;;;;1.40;1.30;;;;;;;;;;5050967;28;20187;-69
2022/05/06 03:38:41;;;;;;;1.00;1.00;;;;;;;;;;5051094;28;20441;-69
2022/05/06 03:41:07;;;;;;;0.80;0.80;;;;;;;;;;5050692;28;20852;-68
2022/05/06 03:43:33;;;;;;;0.90;0.90;;;;;;;;;;5050944;28;20410;-68
2022/05/06 03:45:59;;;;;;;0.70;0.70;;;;;;;;;;5050757;28;20420;-68
2022/05/06 03:48:25;;;;;;;1.13;1.13;;;;;;;;;;5051172;28;20260;-68
2022/05/06 03:53:36;;;;;;;0.80;0.80;;;;;;;;;;5031086;28;20379;-68
2022/05/06 03:56:06;;;;;;;0.70;0.70;;;21.90;56.80;;;;;;5038561;28;20413;-68
2022/05/06 03:58:32;;;;;;;1.00;0.90;;;;;;;;;;5050273;28;20446;-68
2022/05/06 04:00:58;;;;;;;1.10;1.10;;;;;;;;;;5050426;28;20487;-68
2022/05/06 04:03:24;;;;;;;1.43;0.73;;;;;;;;;;5050568;28;20816;-68
2022/05/06 04:05:50;;;;;;;0.80;0.80;;;;;;;;;;5050194;28;20450;-68
2022/05/06 04:08:16;;;;;;;1.30;1.30;;;;;;;;;;5050400;28;20410;-68
2022/05/06 04:10:42;;;;;;;1.40;1.30;;;;;;;;;;5049364;28;20489;-68
2022/05/06 04:13:08;;;;;;;0.80;0.80;;;;;;;;;;5050215;28;20425;-68
2022/05/06 04:15:34;;;;;;;0.93;0.93;;;;;;;;;;5050160;28;20490;-68
2022/05/06 04:18:01;;;;;;;1.00;1.00;;;21.80;56.30;;;;;;5050293;28;20493;-68
2022/05/06 04:23:30;;;;;;;0.80;0.80;;;;;;;;;;5050368;28;20436;-68
2022/05/06 04:25:57;;;;;;;0.83;0.83;;;21.70;56.40;;;;;;5050056;28;20172;-68
2022/05/06 04:28:23;;;;;;;0.80;0.80;;;21.40;55.30;;;;;;5050244;28;20434;-68
2022/05/06 04:30:51;;;;;;;0.90;0.90;;;;;;;;;;5049793;28;20775;-69
2022/05/06 04:33:17;;;;;;;0.70;0.70;;;;;;;;;;5050016;28;20411;-68
2022/05/06 04:35:43;;;;;;;1.40;1.30;;;;;;;;;;5049865;28;20505;-68
2022/05/06 04:38:09;;;;;;;0.95;0.95;;;;;;;;;;5050192;28;20413;-68
2022/05/06 04:40:36;;;;;;;0.93;0.93;;;;;;;;;;5050011;28;20609;-69
2022/05/06 04:43:03;;;;;;;0.87;0.87;;;;;;;;;;5049849;28;20789;-68
2022/05/06 04:45:29;;;;;;;0.83;0.83;;;;;;;;;;5049630;28;20595;-67
2022/05/06 04:47:55;;;;;;;1.73;1.10;;;21.70;67.50;;;;;;5049887;28;20501;-68
2022/05/06 04:50:21;;;;;;;1.00;1.00;;;;;;;;;;5049828;28;20615;-68
2022/05/06 04:52:48;;;;;;;0.80;0.80;;;;;;;;;;5049559;28;20184;-68
2022/05/06 04:55:14;;;;;;;0.87;0.87;;;;;;;;;;5049932;28;20406;-68
2022/05/06 04:57:40;;;;;;;1.00;1.00;;;;;;;;;;5049728;28;20425;-68
2022/05/06 05:00:06;;;;;;;0.93;0.93;;;21.70;55.20;;;;;;5049404;28;20442;-68
2022/05/06 05:02:33;;;;;;;0.93;0.93;;;21.90;56.80;;;;;;5049370;28;20327;-68
2022/05/06 05:04:59;;;;;;;0.93;0.93;;;;;;;;;;5049431;28;20899;-68
2022/05/06 05:07:25;;;;;;;1.10;1.10;;;;;;;;;;5048173;28;20490;-68
2022/05/06 05:09:51;;;;;;;0.80;0.80;;;;;;;;;;5049086;28;20438;-68
2022/05/06 05:12:18;;;;;;;0.93;0.93;;;;;;;;;;5048965;28;20492;-69
2022/05/06 05:14:44;;;;;;;0.87;0.87;;;;;;;;;;5049055;28;20418;-68
2022/05/06 05:17:11;;;;;;;1.23;1.13;;;22.00;74.10;;;;;;5049028;28;20493;-68
2022/05/06 05:19:37;;;;;;;0.60;0.60;;;;;;;;;;5048722;28;20539;-68
2022/05/06 05:22:04;;;;;;;0.90;0.90;;;21.80;56.10;;;;;;5044535;28;20918;-68
2022/05/06 05:24:30;;;;;;;1.37;1.10;;;;;;;;;;5045432;28;20921;-69
2022/05/06 05:26:57;;;;;;;1.80;1.70;;;;;;;;;;5048116;28;20939;-69
2022/05/06 05:29:23;;;;;;;2.08;1.98;;;;;;;;;;5044469;28;20839;-72
2022/05/06 05:31:52;;;;;;;1.60;1.50;;;21.80;55.90;;;;;;5045169;28;20632;-68
2022/05/06 05:34:18;;;;;;;2.23;2.13;;;;;;;;;;5044495;28;20528;-67
2022/05/06 05:36:45;;;;;;;2.10;1.90;;;;;;;;;;5048425;28;20422;-69
2022/05/06 05:39:14;;;;;;;2.80;2.43;;;;;;;;;;5048585;28;20438;-67
2022/05/06 05:41:40;;;;;;;2.60;2.50;;;;;;;;;;5047539;28;20523;-67
2022/05/06 05:49:35;;;;;;;3.00;2.88;;;;;;;;;;5047580;28;20281;-71
2022/05/06 05:52:01;;;;;;;2.50;2.40;;;;;;;;;;5048592;28;20511;-70
2022/05/06 05:54:28;;;;;;;3.47;3.20;;;;;;;;;;5047679;28;20414;-67
2022/05/06 05:56:54;;;;;;;3.03;2.80;;;;;;;;;;5047906;28;20906;-67
2022/05/06 05:59:20;;;;;;;3.00;2.80;;;21.90;58.60;;;;;;5048431;28;20438;-68
2022/05/06 06:01:46;;;;;;;8.93;2.60;;;;;;;;;;5048768;28;20422;-69
2022/05/06 06:04:12;;;;;;;3.13;3.03;;;;;;;;;;5048720;28;20424;-67
2022/05/06 06:06:38;;;;;;;2.33;2.23;;;;;;;;;;5048006;28;20722;-67
2022/05/06 06:09:04;;;;;;;2.00;1.90;;;;;;;;;;5052843;28;20529;-69
2022/05/06 06:11:30;;;;;;;2.20;2.10;;;;;;;;;;5050752;28;20464;-68
2022/05/06 06:13:56;;;;;;;2.05;1.95;;;;;;;;;;5048506;28;20411;-69
2022/05/06 06:16:22;;;;;;;1.83;1.73;;;;;;;;;;5048262;28;20212;-70
2022/05/06 06:18:48;;;;;;;2.37;2.27;;;;;;;;;;5048563;28;20480;-68
2022/05/06 06:21:14;;;;;;;2.40;2.30;;;;;;;;;;5051377;28;20999;-69
2022/05/06 06:23:40;;;;;;;2.30;2.10;;;;;;;;;;5049885;28;20180;-69
2022/05/06 06:26:06;;;;;;;1.77;1.77;;;;;;;;;;5048371;28;20414;-69
2022/05/06 06:28:32;;;;;;;1.90;1.80;;;;;;;;;;5047920;28;20473;-68
2022/05/06 06:30:58;;;;;;;1.90;1.87;;;;;;;;;;5036495;28;20192;-70
2022/05/06 06:33:24;;;;;;;1.90;1.80;;;;;;;;;;5049482;28;20180;-69
2022/05/06 06:35:50;;;;;;;1.63;1.60;;;;;;;;;;5051956;28;20194;-69
2022/05/06 06:38:16;;;;;;;1.50;1.50;;;;;;;;;;5051978;28;20410;-69
2022/05/06 06:40:42;;;;;;;1.77;1.77;;;;;;;;;;5051232;28;20563;-69
2022/05/06 06:43:08;;;;;;;1.80;1.70;;;;;;;;;;5051605;28;20448;-69
2022/05/06 06:45:35;;;;;;;1.40;1.40;;;;;;;;;;5051784;28;20413;-69
2022/05/06 06:48:02;;;;;;;1.30;1.30;;;;;;;;;;5051442;28;20541;-68
2022/05/06 06:50:27;;;;;;;1.30;1.30;;;21.90;70.30;;;;;;5051861;28;20192;-69
2022/05/06 06:52:53;;;;;;;1.40;1.40;;;;;;;;;;5051341;28;20511;-69
2022/05/06 06:55:20;;;;;;;1.53;1.43;;;;;;;;;;5051924;28;20176;-70
2022/05/06 06:57:46;;;;;;;1.52;1.52;;;;;;;;;;5050949;28;20406;-68
2022/05/06 07:00:12;;;;;;;1.60;1.50;;;;;;;;;;5051118;28;20686;-69
2022/05/06 07:02:42;;;;;;;2.23;2.03;;;;;;;;;;5051366;28;20415;-69
2022/05/06 07:05:09;;;;;;;1.50;1.50;;;;;;;;;;5051931;28;20440;-69
2022/05/06 07:13:03;;;;;;;12.27;2.03;;;;;;;;;;5051293;28;20800;-68
2022/05/06 07:15:31;;;;;;;1.90;1.80;;;;;;;;;;5051416;28;20395;-68
2022/05/06 07:17:57;;;;;;;4.70;2.13;;;;;;;;;;5051245;28;20242;-68
2022/05/06 07:20:23;;;;;;;1.70;1.53;;;22.30;69.70;;;;;;5051361;28;20442;-67
2022/05/06 07:22:49;;;;;;;2.37;2.27;;;;;;;;;;5050435;28;20919;-66
2022/05/06 07:25:15;;;;;;;2.03;1.93;;;;;;;;;;5051352;28;20172;-67
2022/05/06 07:27:41;;;;;;;1.90;1.80;;;;;;;;;;5051143;28;20494;-66
2022/05/06 07:30:08;;;;;;;2.10;2.03;;;;;;;;;;5048475;28;20239;-66
2022/05/06 07:32:34;;;;;;;1.93;1.83;;;;;;;;;;5042284;28;20335;-66
2022/05/06 07:35:01;;;;;;;1.60;1.50;;;;;;;;;;5049717;28;20506;-66
2022/05/06 07:37:33;;;;;;;1.43;1.43;;;;;;;;;;5050453;28;20430;-66
2022/05/06 07:39:59;;;;;;;2.27;2.17;;;;;;;;;;5050696;28;20438;-65
2022/05/06 07:42:25;;;;;;;1.80;1.70;;;;;;;;;;5050186;28;20448;-65
2022/05/06 07:44:51;;;;;;;6.73;1.30;;;;;;;;;;5049124;28;20431;-65
2022/05/06 07:47:16;;;;;;;1.50;1.47;;;22.30;76.60;;;;;;5049100;28;20436;-65
2022/05/06 07:49:42;;;;;;;1.75;1.65;;;;;;;;;;5051055;28;20464;-65
2022/05/06 07:52:08;;;;;;;1.40;1.40;;;21.90;72.60;;;;;;5050260;28;20668;-65
2022/05/06 07:54:34;;;;;;;1.33;1.33;;;;;;;;;;5050685;28;20411;-65
2022/05/06 07:57:00;;;;;;;1.60;1.53;;;;;;;;;;5050265;28;20180;-65
2022/05/06 07:59:26;;;;;;;1.03;1.03;;;;;;;;;;5050086;28;20203;-65
2022/05/06 08:04:37;;;;;;;2.07;1.97;;;;;;;;;;5051009;28;20459;-69
2022/05/06 08:07:06;;;;;;;1.73;1.73;;;22.20;58.20;;;;;;5050420;28;20406;-66
2022/05/06 08:09:33;;;;;;;1.90;1.90;;;22.20;58.00;;;;;;5050785;28;20987;-68
2022/05/06 08:11:59;;;;;;;1.63;1.50;;;22.00;63.00;;;;;;5050518;28;20556;-67
2022/05/06 08:14:25;;;;;;;1.67;1.57;;;;;;;;;;5050585;28;20497;-68
2022/05/06 08:16:51;;;;;;;1.73;1.63;;;;;;;;;;5050393;28;20176;-68
2022/05/06 08:19:17;;;;;;;1.67;1.57;;;22.30;66.40;;;;;;5048784;28;20957;-67
2022/05/06 08:21:43;;;;;;;1.88;1.77;;;;;;;;;;5032135;28;20427;-68
2022/05/06 08:24:09;;;;;;;2.07;1.97;;;;;;;;;;5030498;28;20180;-69
2022/05/06 08:26:36;;;;;;;1.80;1.70;;;22.30;56.50;;;;;;5043438;28;20652;-70
2022/05/06 08:29:02;;;;;;;1.83;1.77;;;;;;;;;;5050377;28;20438;-67
2022/05/06 08:31:28;;;;;;;2.00;1.90;;;;;;;;;;5050176;28;20511;-68
2022/05/06 08:33:54;;;;;;;1.80;1.70;;;22.40;66.60;;;;;;5050280;28;20414;-68
2022/05/06 08:36:20;;;;;;;1.50;1.50;;;22.40;63.80;;;;;;5049920;28;20406;-68
2022/05/06 08:38:46;;;;;;;2.30;2.20;;;22.60;70.20;;;;;;5049874;28;20195;-69
2022/05/06 08:41:12;;;;;;;1.70;1.60;;;22.40;57.70;;;;;;5049804;28;20488;-69
2022/05/06 08:43:38;;;;;;;1.60;1.60;;;;;;;;;;5049960;28;20178;-69
2022/05/06 08:51:38;;;;;;;1.60;1.50;;;22.50;57.60;;;;;;5041632;28;20453;-68
2022/05/06 08:54:04;;;;;;;2.90;1.30;;;22.40;56.50;;;;;;5049751;28;20413;-69
2022/05/06 08:56:31;;;;;;;1.80;1.70;;;;;;;;;;5049174;28;20497;-69
2022/05/06 08:58:57;;;;;;;1.87;1.77;;;;;;;;;;5049622;28;20537;-67
2022/05/06 09:01:24;;;;;;;1.70;1.60;;;22.60;73.00;;;;;;5049149;28;20429;-69
2022/05/06 09:03:50;;;;;;;2.90;1.67;;;22.50;57.00;;;;;;5047544;28;20470;-68
2022/05/06 09:06:24;;;;;;;1.30;1.20;;;22.50;58.20;;;;;;5035655;28;20452;-68
2022/05/06 09:08:51;;;;;;;1.57;1.57;;;22.50;65.30;;;;;;5049345;28;20825;-68
2022/05/06 09:12:40;;;;;;;1.60;1.52;;;22.40;57.40;;;;;;5049215;28;20509;-68
2022/05/06 09:14:04;;;;;;;1.30;1.30;;;;;;;;;;5047314;28;20290;-68
2022/05/06 09:16:39;;;;;;;1.43;1.20;;;;;;;;;;5045190;28;20471;-68
2022/05/06 09:19:21;;;;;;;1.60;1.50;;;22.40;54.10;;;;;;5049142;28;20445;-68
2022/05/06 09:22:00;;;;;;;1.87;1.60;;;22.40;54.00;;;;;;5029663;28;20959;-68
2022/05/06 09:24:29;;;;;;;1.27;1.27;;;;;;;;;;5029677;28;20411;-67
2022/05/06 09:27:00;;;;;;;4.50;1.23;;;22.60;65.20;;;;;;5035984;28;20414;-68
2022/05/06 09:29:30;;;;;;;1.42;1.33;;;22.40;65.10;;;;;;5033671;28;20516;-67
2022/05/06 09:32:27;;;;;;;1.87;1.77;;;22.30;57.00;;;;;;5048271;28;20247;-67
2022/05/06 09:34:55;;;;;;;1.57;1.57;;;23.00;57.50;;;;;;5038702;28;20468;-68
2022/05/06 09:37:38;;;;;;;1.67;1.57;;;22.30;55.80;;;;;;5048990;28;20406;-68
2022/05/06 09:40:10;;;;;;;1.83;1.57;;;22.60;84.50;;;;;;5049779;28;20944;-68
2022/05/06 09:42:38;;;;;;;1.93;1.83;;;22.40;69.30;;;;;;5049423;28;20410;-67
2022/05/06 09:45:05;;;;;;;1.43;1.43;;;23.10;57.50;;;;;;5044737;28;20458;-67
2022/05/06 09:47:34;;;;;;;1.93;1.70;;;22.30;56.40;;;;;;5048587;28;20437;-67
2022/05/06 09:50:01;;;;;;;1.60;1.60;;;;;;;;;;5062810;28;20802;-69
2022/05/06 09:52:27;;;;;;;1.70;1.60;;;;;;;;;;5051270;28;20534;-71
2022/05/06 09:54:53;;;;;;;2.93;1.73;;;22.60;56.00;;;;;;5046802;28;20465;-69
2022/05/06 09:57:19;;;;;;;2.53;1.27;;;;;;;;;;5046515;28;20450;-68
2022/05/06 09:59:45;;;;;;;1.77;1.67;;;;;;;;;;5048109;28;20453;-74
2022/05/06 10:02:11;;;;;;;1.20;1.20;;;;;;;;;;5048230;28;21116;-69
2022/05/06 10:04:38;;;;;;;1.90;1.10;;;22.60;84.80;;;;;;5048641;28;20814;-73
2022/05/06 10:07:11;;;;;;;1.63;1.53;;;22.70;76.40;;;;;;5048495;28;20437;-67
2022/05/06 10:10:01;;;;;;;1.10;1.10;;;22.60;84.60;;;;;;5045731;28;20454;-68
2022/05/06 10:12:35;;;;;;;1.40;1.40;;;22.80;59.40;;;;;;5048152;28;20503;-67
2022/05/06 10:15:02;;;;;;;1.40;1.40;;;;;;;;;;5046799;28;20449;-68
2022/05/06 10:17:46;;;;;;;1.37;1.37;;;22.60;54.10;;;;;;5051582;28;20903;-65
2022/05/06 10:20:12;;;;;;;1.40;1.40;;;;;;;;;;5052155;28;20442;-65
2022/05/06 10:23:00;;;;;;;1.37;1.37;;;22.60;53.60;;;;;;5051980;28;20434;-65
2022/05/06 10:25:48;;;;;;;2.87;1.60;;;22.60;53.20;;;;;;5050061;28;20426;-65
2022/05/06 10:34:10;;;;;;;3.80;1.60;;;22.60;55.80;;;;;;5052143;28;20545;-68
2022/05/06 10:36:43;;;;;;;1.50;1.30;;;22.60;69.90;;;;;;5047291;28;20427;-69
2022/05/06 10:39:26;;;;;;;1.73;1.63;;;22.10;52.60;;;;;;5046673;28;20505;-69
2022/05/06 10:42:10;;;;;;;2.00;1.37;;;22.20;52.90;;;;;;5046031;28;20817;-69
2022/05/06 10:44:44;;;;;;;2.37;1.60;;;22.30;59.40;;;;;;5050919;28;20458;-69
2022/05/06 10:47:12;;;;;;;1.27;1.17;;;23.20;53.30;;;;;;5051302;28;20427;-69
2022/05/06 10:49:38;;;;;;;1.17;1.07;;;;;;;;;;5052039;28;20511;-69
2022/05/06 10:52:16;;;;;;;1.23;1.23;;;22.60;53.10;;;;;;5051511;28;20559;-69
2022/05/06 10:55:03;;;;;;;3.33;1.40;;;22.60;64.00;;;;;;5046991;28;20190;-69
2022/05/06 10:57:30;;;;;;;1.70;1.42;;;22.70;56.20;;;;;;5051317;28;20488;-69
2022/05/06 11:00:00;;;;;;;1.40;1.30;;;22.50;53.40;;;;;;5046815;28;20281;-70
2022/05/06 11:02:30;;;;;;;2.40;1.43;;;22.40;56.60;;;;;;5050767;28;20742;-69
2022/05/06 11:04:58;;;;;;;3.47;1.70;;;22.60;55.90;;;;;;5052107;28;20406;-66
2022/05/06 11:07:24;;;;;;;1.50;1.40;;;;;;;;;;5051335;28;20460;-69
2022/05/06 11:09:51;;;;;;;1.43;1.33;;;;;;;;;;5051428;28;20446;-72
2022/05/06 11:12:35;;;;;;;1.23;1.23;;;22.70;54.00;;;;;;5051486;28;20515;-67
2022/05/06 11:15:03;;;;;;;1.57;1.47;;;22.50;64.70;;;;;;5031865;28;20410;-68
2022/05/06 11:17:31;;;;;;;2.73;1.73;;;23.30;56.40;;;;;;5045558;28;20444;-71
2022/05/06 11:19:57;;;;;;;1.30;1.30;;;;;;;;;;5050308;28;20736;-67
2022/05/06 11:22:24;;;;;;;1.20;1.20;;;;;;;;;;5051495;28;20509;-66
2022/05/06 11:24:54;;;;;;;3.70;0.93;;;22.60;69.50;;;;;;5051237;28;20176;-69
2022/05/06 11:27:20;;;;;;;1.80;1.70;;;;;;;;;;5050828;28;20440;-65
2022/05/06 11:29:55;;;;;;;1.90;1.80;;;22.80;59.50;;;;;;5050900;28;20946;-66
2022/05/06 11:32:21;;;;;;;1.25;1.13;;;;;;;;;;5051053;28;20487;-68
2022/05/06 11:34:54;;;;;;;1.27;1.27;;;23.00;56.90;;;;;;5051478;28;20531;-68
2022/05/06 11:37:21;;;;;;;2.83;1.37;;;22.80;63.60;;;;;;5035838;28;20493;-68
2022/05/06 11:39:48;;;;;;;1.50;1.50;;;23.00;79.50;;;;;;5051204;28;20444;-68
2022/05/06 11:42:21;;;;;;;1.60;1.50;;;22.90;53.90;;;;;;5050589;28;20934;-68
2022/05/06 11:47:44;;;;;;;4.30;1.33;;;;;;;;;;5048762;28;20503;-68
2022/05/06 11:50:10;;;;;;;1.50;1.40;;;;;;;;;;5048238;28;20443;-70
2022/05/06 11:52:39;;;;;;;1.57;1.40;;;22.90;53.70;;;;;;5048923;28;20291;-69
2022/05/06 11:55:06;;;;;;;1.20;1.10;;;23.00;56.80;;;;;;5049678;28;20422;-69
2022/05/06 11:57:34;;;;;;;1.10;1.10;;;23.00;56.90;;;;;;5050694;28;20806;-68
2022/05/06 12:00:03;;;;;;;1.27;1.20;;;23.10;71.40;;;;;;5051059;28;20947;-67
2022/05/06 12:02:29;;;;;;;1.00;1.00;;;;;;;;;;5051587;28;20422;-67
2022/05/06 12:04:54;;;;;;;2.40;1.27;;;;;;;;;;5051037;28;20995;-67
2022/05/06 12:07:20;;;;;;;1.43;1.00;;;;;;;;;;5050300;28;20954;-67
2022/05/06 12:09:47;;;;;;;1.53;1.43;;;;;;;;;;5050353;28;20286;-67
2022/05/06 12:12:13;;;;;;;1.10;1.10;;;;;;;;;;5050261;28;20438;-68
2022/05/06 12:14:39;;;;;;;1.07;1.07;;;23.60;66.70;;;;;;5050018;28;20791;-67
2022/05/06 12:17:11;;;;;;;1.30;1.20;;;23.10;64.30;;;;;;5049490;28;20982;-65
2022/05/06 12:19:37;;;;;;;1.42;1.42;;;;;;;;;;5050992;28;20208;-67
2022/05/06 12:22:13;;;;;;;1.20;1.20;;;23.20;53.50;;;;;;5050817;28;20622;-68
2022/05/06 12:24:48;;;;;;;1.17;1.10;;;23.20;53.60;;;;;;5050638;28;20423;-67
2022/05/06 12:27:31;;;;;;;1.33;1.23;;;23.20;53.40;;;;;;5050086;28;20402;-67
2022/05/06 12:30:01;;;;;;;1.53;1.53;;;;;;;;;;5049651;28;20968;-68
2022/05/06 12:32:30;;;;;;;1.20;1.20;;;;;;;;;;5049706;28;20450;-69
2022/05/06 12:35:05;;;;;;;1.60;1.60;;;23.20;53.20;;;;;;5050445;28;20429;-66
2022/05/06 12:37:31;;;;;;;0.90;0.90;;;;;;;;;;5048949;28;20418;-67
2022/05/06 12:39:59;;;;;;;0.90;0.90;;;23.30;56.00;;;;;;5049872;28;20513;-66
2022/05/06 12:42:25;;;;;;;1.57;1.10;;;;;;;;;;5047774;28;20228;-67
2022/05/06 12:44:51;;;;;;;1.30;1.20;;;;;;;;;;5049582;28;20903;-66
2022/05/06 12:50:10;;;;;;;1.60;1.50;;;23.40;63.90;;;;;;5049996;28;20519;-67
2022/05/06 12:52:36;;;;;;;1.30;1.25;;;23.30;64.00;;;;;;5049936;28;20914;-67
2022/05/06 12:55:06;;;;;;;1.00;1.00;;;23.40;80.00;;;;;;5050045;28;20320;-67
2022/05/06 12:57:32;;;;;;;1.50;1.50;;;;;;;;;;5049044;28;20208;-68
2022/05/06 12:59:57;;;;;;;1.10;1.10;;;;;;;;;;5049510;28;21045;-68
2022/05/06 13:02:24;;;;;;;1.00;1.00;;;;;;;;;;5049631;28;20422;-68
2022/05/06 13:04:49;;;;;;;1.00;1.00;;;23.50;56.20;;;;;;5049552;28;20422;-68
2022/05/06 13:07:15;;;;;;;1.10;1.10;;;22.70;55.60;;;;;;5049343;28;20437;-68
2022/05/06 13:09:41;;;;;;;1.57;1.20;;;23.50;78.60;;;;;;5048439;28;20211;-68
2022/05/06 13:12:09;;;;;;;1.20;1.20;;;;;;;;;;5049288;28;20466;-68
2022/05/06 13:14:35;;;;;;;1.47;1.00;;;;;;;;;;5049446;28;20176;-67
2022/05/06 13:17:01;;;;;;;1.00;1.00;;;;;;;;;;5048829;28;20425;-68
2022/05/06 13:19:29;;;;;;;6.93;1.30;;;;;;;;;;5048755;28;20461;-67
2022/05/06 13:21:55;;;;;;;1.03;1.03;;;;;;;;;;5044154;28;20923;-67
2022/05/06 13:24:23;;;;;;;1.07;1.07;;;;;;;;;;5047758;28;20505;-67
2022/05/06 13:26:49;;;;;;;1.10;1.10;;;;;;;;;;5049280;28;20498;-65
2022/05/06 13:29:15;;;;;;;1.20;1.10;;;;;;;;;;5049073;28;20525;-65
2022/05/06 13:31:40;;;;;;;1.10;1.10;;;23.20;78.10;;;;;;5049469;28;20481;-65
2022/05/06 13:34:06;;;;;;;0.90;0.90;;;23.30;80.90;;;;;;5049344;28;20766;-65
2022/05/06 13:36:32;;;;;;;1.17;1.00;;;;;;;;;;5048932;28;20168;-65
2022/05/06 13:39:00;;;;;;;0.90;0.90;;;23.40;63.50;;;;;;5049242;28;20194;-65
2022/05/06 13:41:27;;;;;;;0.82;0.82;;;;;;;;;;5049162;28;20763;-64
2022/05/06 13:43:53;;;;;;;2.70;1.00;;;;;;;;;;5048028;28;20195;-66
2022/05/06 13:46:19;;;;;;;0.95;0.95;;;;;;;;;;5048120;28;20429;-66
2022/05/06 13:48:45;;;;;;;1.20;1.20;;;;;;;;;;5048955;28;20570;-68
2022/05/06 13:51:11;;;;;;;1.20;1.20;;;;;;;;;;5048825;28;20453;-67
2022/05/06 13:53:36;;;;;;;0.87;0.87;;;23.20;65.80;;;;;;5048660;28;20451;-67
2022/05/06 13:59:04;;;;;;;1.37;1.00;;;;;;;;;;5048878;28;20206;-68
2022/05/06 14:01:30;;;;;;;1.00;1.00;;;;;;;;;;5049014;28;20393;-67
2022/05/06 14:03:56;;;;;;;1.00;1.00;;;;;;;;;;5048906;28;20468;-67
2022/05/06 14:06:22;;;;;;;1.13;1.13;;;;;;;;;;5048501;28;20407;-68
2022/05/06 14:08:48;;;;;;;4.10;0.97;;;;;;;;;;5048390;28;20854;-68
2022/05/06 14:11:16;;;;;;;1.27;1.17;;;;;;;;;;5048475;28;20458;-67
2022/05/06 14:13:42;;;;;;;1.23;1.20;;;;;;;;;;5048578;28;20418;-68
2022/05/06 14:16:08;;;;;;;2.13;1.40;;;;;;;;;;5048557;28;20493;-67
2022/05/06 14:18:34;;;;;;;1.10;1.10;;;;;;;;;;5048290;28;20932;-68
2022/05/06 14:21:00;;;;;;;0.80;0.80;;;;;;;;;;5048567;28;20418;-67
2022/05/06 14:23:26;;;;;;;2.55;1.30;;;;;;;;;;5048504;28;20425;-67
2022/05/06 14:25:52;;;;;;;0.70;0.70;;;;;;;;;;5048415;28;20172;-67
2022/05/06 14:28:19;;;;;;;0.95;0.80;;;;;;;;;;5048636;28;20176;-67
2022/05/06 14:30:44;;;;;;;0.70;0.70;;;23.60;70.30;;;;;;5048329;28;20247;-67
2022/05/06 14:33:10;;;;;;;1.17;1.17;;;;;;;;;;5048281;28;20489;-67
2022/05/06 14:35:37;;;;;;;1.10;1.10;;;;;;;;;;5048497;28;20173;-67
2022/05/06 14:38:04;;;;;;;1.30;1.10;;;23.30;63.90;;;;;;5048456;28;20532;-67
2022/05/06 14:40:30;;;;;;;1.20;1.10;;;23.60;62.80;;;;;;5048271;28;20812;-68
2022/05/06 14:42:57;;;;;;;0.73;0.73;;;;;;;;;;5048145;28;20428;-67
2022/05/06 14:45:23;;;;;;;1.00;1.00;;;;;;;;;;5048160;28;20177;-67